createdAt,value
2023-05-21T00:02:47.075Z,14
2023-05-21T00:22:46.953Z,14
2023-05-21T00:42:46.893Z,14.01
2023-05-21T01:02:46.976Z,14.01
2023-05-21T01:22:46.854Z,14.01
2023-05-21T02:02:46.807Z,14.02
2023-05-21T02:22:46.770Z,14.02
2023-05-21T02:42:46.712Z,14.02
2023-05-21T03:02:46.156Z,14.02
2023-05-21T03:22:46.667Z,14.02
2023-05-21T03:42:46.628Z,14.02
2023-05-21T04:02:46.626Z,14.02
2023-05-21T04:22:46.613Z,14.02
2023-05-21T04:42:46.517Z,14.03
2023-05-21T05:02:46.580Z,14.03
2023-05-21T05:22:46.451Z,14.03
2023-05-21T06:02:46.461Z,14.03
2023-05-21T06:22:46.356Z,14.03
2023-05-21T06:42:46.321Z,14.03
2023-05-21T07:22:46.267Z,14.03
2023-05-21T07:42:46.227Z,14.03
2023-05-21T08:02:46.031Z,14.03
2023-05-21T08:22:46.170Z,14.02
2023-05-21T08:42:46.141Z,14.02
2023-05-21T10:22:45.941Z,14.01
2023-05-21T10:42:45.915Z,14.01
2023-05-21T11:22:45.840Z,14
2023-05-21T11:42:45.773Z,14
2023-05-21T12:22:45.797Z,13.99
2023-05-21T13:22:45.626Z,13.98
2023-05-21T13:42:45.709Z,13.97
2023-05-21T14:02:45.824Z,13.97
2023-05-21T14:22:45.521Z,13.97
2023-05-21T14:42:45.496Z,13.97
2023-05-21T15:22:45.440Z,13.96
2023-05-21T15:42:45.364Z,13.96
2023-05-21T16:02:45.341Z,13.96
2023-05-21T16:22:45.287Z,13.96
2023-05-21T16:42:44.997Z,13.96
2023-05-21T17:22:45.219Z,13.96
2023-05-21T17:42:45.151Z,13.97
2023-05-21T18:02:45.125Z,13.97
2023-05-21T18:22:45.116Z,13.97
2023-05-21T18:42:45.038Z,13.97
2023-05-21T19:02:45.059Z,13.98
2023-05-21T19:22:44.957Z,13.98
2023-05-21T19:42:45.084Z,13.99
2023-05-21T20:02:44.911Z,13.99
2023-05-21T20:22:44.859Z,14
2023-05-21T20:42:44.579Z,14.01
2023-05-21T21:02:44.819Z,14.02
2023-05-21T21:22:44.736Z,14.02
2023-05-21T21:42:44.726Z,14.03
2023-05-21T22:02:44.699Z,14.03
2023-05-21T22:22:44.635Z,14.04
2023-05-21T22:42:44.599Z,14.04
2023-05-21T23:02:44.590Z,14.05
2023-05-21T23:22:44.545Z,14.05
2023-05-21T23:42:44.516Z,14.05
